createdAt,value
2023-03-29T00:07:40.218Z,77.0
2023-03-29T00:21:40.242Z,76.0
2023-03-29T00:35:40.279Z,76.0
2023-03-29T00:49:40.257Z,75.0
2023-03-29T01:03:40.358Z,75.0
2023-03-29T01:17:40.336Z,77.0
2023-03-29T01:31:40.317Z,78.0
2023-03-29T01:45:40.389Z,76.0
2023-03-29T01:59:40.346Z,76.0
2023-03-29T02:13:41.561Z,75.0
2023-03-29T02:27:40.369Z,75.0
2023-03-29T02:41:40.375Z,74.0
2023-03-29T02:55:40.400Z,73.0
2023-03-29T03:09:40.387Z,76.0
2023-03-29T03:23:40.422Z,76.0
2023-03-29T03:37:40.428Z,72.0
2023-03-29T03:51:40.432Z,71.0
2023-03-29T04:05:40.437Z,59.0
2023-03-29T04:19:40.436Z,63.0
2023-03-29T04:33:40.439Z,70.0
2023-03-29T04:47:40.470Z,72.0
2023-03-29T05:02:40.522Z,73.0
2023-03-29T05:17:40.470Z,76.0
2023-03-29T05:32:40.531Z,73.0
2023-03-29T05:47:40.631Z,71.0
2023-03-29T06:02:40.564Z,67.0
2023-03-29T06:17:40.556Z,66.0
2023-03-29T06:32:40.700Z,68.0
2023-03-29T06:47:40.582Z,66.0
2023-03-29T07:02:40.597Z,64.0
2023-03-29T07:17:40.644Z,57.0
2023-03-29T07:32:40.724Z,56.0
2023-03-29T07:47:40.671Z,52.0
2023-03-29T08:02:40.751Z,48.0
2023-03-29T08:17:40.741Z,41.0
2023-03-29T08:32:40.830Z,39.0
2023-03-29T08:47:40.795Z,41.0
2023-03-29T09:02:40.873Z,41.0
2023-03-29T09:17:40.931Z,39.0
2023-03-29T09:32:40.919Z,38.0
2023-03-29T09:47:40.918Z,38.0
2023-03-29T10:02:40.865Z,37.0
2023-03-29T10:17:40.841Z,38.0
2023-03-29T10:32:40.845Z,39.0
2023-03-29T10:47:40.878Z,37.0
2023-03-29T11:02:40.878Z,36.0
2023-03-29T11:17:40.835Z,36.0
2023-03-29T11:32:40.861Z,37.0
2023-03-29T11:47:40.858Z,36.0
2023-03-29T12:02:41.023Z,37.0
2023-03-29T12:17:40.860Z,37.0
2023-03-29T12:32:40.883Z,36.0
2023-03-29T12:47:40.953Z,40.0
2023-03-29T13:02:41.021Z,36.0
2023-03-29T13:17:40.880Z,35.0
2023-03-29T13:32:40.927Z,36.0
2023-03-29T13:47:41.924Z,36.0
2023-03-29T14:02:41.022Z,34.0
2023-03-29T14:17:40.881Z,38.0
2023-03-29T14:32:40.948Z,37.0
2023-03-29T14:47:40.930Z,37.0
2023-03-29T15:02:40.949Z,37.0
2023-03-29T15:16:40.925Z,38.0
2023-03-29T15:30:40.905Z,39.0
2023-03-29T15:44:40.903Z,40.0
2023-03-29T15:58:40.949Z,42.0
2023-03-29T16:12:40.924Z,42.0
2023-03-29T16:26:40.925Z,43.0
2023-03-29T16:40:40.913Z,44.0
2023-03-29T16:54:40.941Z,49.0
2023-03-29T17:08:40.955Z,55.0
2023-03-29T17:22:40.962Z,58.0
2023-03-29T17:36:40.967Z,63.0
2023-03-29T17:51:40.967Z,67.0
2023-03-29T18:05:40.979Z,71.0
2023-03-29T18:19:40.985Z,71.0
2023-03-29T18:32:41.031Z,71.0
2023-03-29T18:45:41.034Z,71.0
2023-03-29T18:58:41.031Z,70.0
2023-03-29T19:11:41.042Z,74.0
2023-03-29T19:24:41.003Z,76.0
2023-03-29T19:37:41.028Z,79.0
2023-03-29T19:50:41.056Z,79.0
2023-03-29T20:03:43.016Z,81.0
2023-03-29T20:16:41.064Z,83.0
2023-03-29T20:29:41.027Z,83.0
2023-03-29T20:42:41.039Z,82.0
2023-03-29T20:55:41.098Z,80.0
2023-03-29T21:08:41.083Z,79.0
2023-03-29T21:21:41.089Z,78.0
2023-03-29T21:34:41.154Z,78.0
2023-03-29T21:47:41.155Z,80.0
2023-03-29T22:00:41.147Z,81.0
2023-03-29T22:13:42.837Z,80.0
2023-03-29T22:26:41.158Z,76.0
2023-03-29T22:39:41.173Z,75.0
2023-03-29T22:52:41.191Z,79.0
2023-03-29T23:05:41.175Z,81.0
2023-03-29T23:18:41.182Z,82.0
2023-03-29T23:31:41.199Z,83.0
2023-03-29T23:44:41.204Z,83.0
2023-03-29T23:57:41.193Z,84.0
